Time;durP1;ratioP1;P1;durP2;ratioP2;P2;SDS_P1;SDS_P2;PMS_P1;PMS_P2;Temp;Humidity;BMP_temperature;BMP_pressure;BME280_temperature;BME280_humidity;BME280_pressure;Samples;Min_cycle;Max_cycle;Signal;HPM_P1;HPM_P2
2024/01/18 00:01:29;;;;;;;0.20;0.10;;;;;;;;;;4938486;28;20054;-84
2024/01/18 00:03:55;;;;;;;0.30;0.30;;;;;;;;;;4948614;28;20046;-84
2024/01/18 00:06:21;;;;;;;0.20;0.10;;;;;;;;;;4937968;28;20403;-84
2024/01/18 00:08:47;;;;;;;0.20;0.10;;;;;;;;;;4931858;28;20078;-84
2024/01/18 00:11:13;;;;;;;0.20;0.10;;;;;;;;;;4941743;28;20129;-83
2024/01/18 00:13:39;;;;;;;0.20;0.10;;;;;;;;;;4941515;28;20057;-83
2024/01/18 00:16:05;;;;;;;0.30;0.22;;;;;;;;;;4943189;28;20049;-84
2024/01/18 00:18:31;;;;;;;0.20;0.10;;;;;;;;;;4951300;28;20043;-84
2024/01/18 00:20:57;;;;;;;0.20;0.17;;;;;;;;;;4945256;28;20558;-83
2024/01/18 00:23:23;;;;;;;0.20;0.10;;;;;;;;;;4934269;28;20050;-83
2024/01/18 00:25:49;;;;;;;0.20;0.10;;;;;;;;;;4938502;28;20078;-84
2024/01/18 00:28:15;;;;;;;0.20;0.10;;;;;;;;;;4950165;28;20074;-84
2024/01/18 00:30:41;;;;;;;0.20;0.10;;;;;;;;;;4951046;28;20039;-85
2024/01/18 00:33:07;;;;;;;0.88;0.40;;;;;;;;;;4950178;28;20061;-83
2024/01/18 00:35:33;;;;;;;0.20;0.10;;;;;;;;;;4935177;28;20039;-83
2024/01/18 00:37:59;;;;;;;0.20;0.20;;;;;;;;;;4946044;28;20042;-84
2024/01/18 00:40:26;;;;;;;0.22;0.15;;;;;;;;;;4931341;28;20057;-83
2024/01/18 00:42:52;;;;;;;0.20;0.10;;;;;;;;;;4938505;28;20038;-83
2024/01/18 00:45:18;;;;;;;0.52;0.30;;;;;;;;;;4930808;28;20476;-83
2024/01/18 00:47:44;;;;;;;0.40;0.40;;;;;;;;;;4941501;28;20045;-83
2024/01/18 00:50:10;;;;;;;0.20;0.10;;;;;;;;;;4945463;28;20394;-83
2024/01/18 00:52:36;;;;;;;0.20;0.10;;;;;;;;;;4927857;28;20042;-84
2024/01/18 00:55:02;;;;;;;0.20;0.10;;;;;;;;;;4935059;28;20046;-83
2024/01/18 00:57:28;;;;;;;0.20;0.10;;;;;;;;;;4946830;28;20146;-83
2024/01/18 00:59:55;;;;;;;0.20;0.20;;;;;;;;;;4949404;28;20039;-84
2024/01/18 01:02:21;;;;;;;0.20;0.10;;;;;;;;;;4933051;28;20134;-84
2024/01/18 01:04:47;;;;;;;0.20;0.10;;;;;;;;;;4947420;28;20046;-83
2024/01/18 01:07:13;;;;;;;0.20;0.10;;;;;;;;;;4931875;28;20054;-83
2024/01/18 01:09:39;;;;;;;0.93;0.82;;;;;;;;;;4924501;28;20035;-84
2024/01/18 01:12:05;;;;;;;0.40;0.30;;;;;;;;;;4926012;28;20057;-83
2024/01/18 01:14:31;;;;;;;0.20;0.10;;;;;;;;;;4934215;28;20043;-84
2024/01/18 01:16:57;;;;;;;0.40;0.30;;;;;;;;;;4931659;28;20042;-82
2024/01/18 01:19:23;;;;;;;0.20;0.10;;;;;;;;;;4943011;28;20043;-84
2024/01/18 01:21:49;;;;;;;0.20;0.20;;;;;;;;;;4925930;28;20050;-84
2024/01/18 01:24:15;;;;;;;0.20;0.20;;;;;;;;;;4926509;28;20043;-83
2024/01/18 01:26:41;;;;;;;0.20;0.17;;;;;;;;;;4926435;28;20051;-84
2024/01/18 01:29:08;;;;;;;0.32;0.32;;;;;;;;;;4927954;28;20546;-84
2024/01/18 01:31:34;;;;;;;0.77;0.65;;;;;;;;;;4948014;28;20039;-83
2024/01/18 01:34:00;;;;;;;0.28;0.20;;;;;;;;;;4931958;28;20039;-83
2024/01/18 01:36:26;;;;;;;0.20;0.10;;;;;;;;;;4935774;28;20152;-83
2024/01/18 01:38:52;;;;;;;0.20;0.10;;;;;;;;;;4928670;28;20170;-84
2024/01/18 01:41:18;;;;;;;0.20;0.10;;;;;;;;;;4928854;28;20042;-84
2024/01/18 01:43:58;;;;;;;0.47;0.20;;;;;;;;;;4943204;28;20038;-83
2024/01/18 01:46:24;;;;;;;0.20;0.10;;;;;;;;;;4924712;28;20515;-84
2024/01/18 01:48:50;;;;;;;0.75;0.28;;;;;;;;;;4953888;28;20042;-84
2024/01/18 01:51:16;;;;;;;0.20;0.10;;;;;;;;;;4942137;28;20694;-83
2024/01/18 01:53:42;;;;;;;0.20;0.10;;;;;;;;;;4941275;28;20035;-84
2024/01/18 01:56:08;;;;;;;0.20;0.10;;;;;;;;;;4932191;28;20125;-83
2024/01/18 01:58:36;;;;;;;0.20;0.10;;;;;;;;;;4931019;28;20078;-83
2024/01/18 02:01:02;;;;;;;0.20;0.10;;;;;;;;;;4945688;28;20108;-83
2024/01/18 02:03:28;;;;;;;0.20;0.10;;;;;;;;;;4939805;28;20203;-83
2024/01/18 02:05:55;;;;;;;0.20;0.10;;;;;;;;;;4942926;28;20105;-83
2024/01/18 02:08:22;;;;;;;0.20;0.03;;;;;;;;;;4932345;28;20125;-83
2024/01/18 02:10:48;;;;;;;0.20;0.10;;;;;;;;;;4927348;28;20039;-83
2024/01/18 02:13:15;;;;;;;0.20;0.10;;;;;;;;;;4950682;28;20104;-83
2024/01/18 02:15:42;;;;;;;0.20;0.10;;;;;;;;;;4924996;28;20554;-83
2024/01/18 02:18:08;;;;;;;0.20;0.10;;;;;;;;;;4917513;28;20106;-84
2024/01/18 02:20:34;;;;;;;0.20;0.10;;;;;;;;;;4929813;28;20117;-83
2024/01/18 02:23:01;;;;;;;0.20;0.10;;;;;;;;;;4928156;28;20165;-83
2024/01/18 02:25:28;;;;;;;0.20;0.10;;;;;;;;;;4929401;28;20134;-83
2024/01/18 02:27:55;;;;;;;0.20;0.10;;;;;;;;;;4945591;28;20100;-83
2024/01/18 02:30:21;;;;;;;0.20;0.10;;;;;;;;;;4931038;28;20043;-82
2024/01/18 02:32:47;;;;;;;0.20;0.10;;;;;;;;;;4922010;28;20046;-83
2024/01/18 02:35:13;;;;;;;0.20;0.10;;;;;;;;;;4929690;28;20151;-83
2024/01/18 02:37:40;;;;;;;0.20;0.10;;;;;;;;;;4934607;28;20050;-83
2024/01/18 02:40:07;;;;;;;0.20;0.10;;;;;;;;;;4939958;28;20053;-83
2024/01/18 02:42:34;;;;;;;0.45;0.30;;;;;;;;;;4928624;28;20054;-83
2024/01/18 02:45:03;;;;;;;0.20;0.05;;;;;;;;;;4929601;28;20034;-83
2024/01/18 02:47:29;;;;;;;0.35;0.35;;;;;;;;;;4937388;28;20049;-83
2024/01/18 02:49:56;;;;;;;0.20;0.10;;;;;;;;;;4939721;28;20058;-83
2024/01/18 02:52:22;;;;;;;0.20;0.10;;;;;;;;;;4941788;28;20043;-83
2024/01/18 02:54:48;;;;;;;0.20;0.10;;;;;;;;;;4943423;28;20101;-83
2024/01/18 02:57:14;;;;;;;0.20;0.10;;;;;;;;;;4943536;28;20034;-84
2024/01/18 02:59:40;;;;;;;0.20;0.10;;;;;;;;;;4941273;28;20031;-83
2024/01/18 03:02:06;;;;;;;0.20;0.10;;;;;;;;;;4924022;28;20045;-83
2024/01/18 03:04:32;;;;;;;0.20;0.10;;;;;;;;;;4951042;28;20078;-82
2024/01/18 03:06:58;;;;;;;0.20;0.10;;;;;;;;;;4950455;28;20129;-83
2024/01/18 03:09:24;;;;;;;0.20;0.10;;;;;;;;;;4935556;28;20034;-83
2024/01/18 03:11:50;;;;;;;0.20;0.00;;;;;;;;;;4931987;28;20157;-82
2024/01/18 03:14:16;;;;;;;0.20;0.10;;;;;;;;;;4950020;28;20235;-83
2024/01/18 03:16:43;;;;;;;0.20;0.10;;;;;;;;;;4950757;28;20407;-83
2024/01/18 03:19:10;;;;;;;0.20;0.10;;;;;;;;;;4928837;28;20039;-83
2024/01/18 03:21:36;;;;;;;0.20;0.10;;;;;;;;;;4947259;28;20035;-82
2024/01/18 03:24:02;;;;;;;0.20;0.10;;;;;;;;;;4931916;28;20709;-83
2024/01/18 03:26:28;;;;;;;0.20;0.10;;;;;;;;;;4947459;28;20077;-83
2024/01/18 03:28:55;;;;;;;0.20;0.10;;;;;;;;;;4925331;28;20657;-82
2024/01/18 03:31:21;;;;;;;0.20;0.10;;;;;;;;;;4936903;28;20050;-83
2024/01/18 03:33:47;;;;;;;0.20;0.10;;;;;;;;;;4948993;28;20517;-82
2024/01/18 03:36:13;;;;;;;0.20;0.10;;;;;;;;;;4935615;28;20100;-82
2024/01/18 03:38:39;;;;;;;0.20;0.10;;;;;;;;;;4929613;28;20070;-83
2024/01/18 03:41:05;;;;;;;0.20;0.10;;;;;;;;;;4942685;28;20558;-82
2024/01/18 03:43:31;;;;;;;0.20;0.10;;;;;;;;;;4946290;28;20046;-83
2024/01/18 03:45:57;;;;;;;0.25;0.17;;;;;;;;;;4945857;28;20043;-81
2024/01/18 03:48:23;;;;;;;0.20;0.00;;;;;;;;;;4948462;28;20054;-83
2024/01/18 03:50:49;;;;;;;0.20;0.10;;;;;;;;;;4928069;28;20042;-83
2024/01/18 03:53:15;;;;;;;0.20;0.10;;;;;;;;;;4936992;28;20117;-83
2024/01/18 03:55:41;;;;;;;0.20;0.10;;;;;;;;;;4945167;28;20196;-83
2024/01/18 03:58:07;;;;;;;0.20;0.10;;;;;;;;;;4944019;28;20050;-83
2024/01/18 04:00:33;;;;;;;0.20;0.10;;;;;;;;;;4926302;28;20511;-83
2024/01/18 04:02:59;;;;;;;0.30;0.20;;;;;;;;;;4930332;28;20178;-83
2024/01/18 04:05:25;;;;;;;0.20;0.10;;;;;;;;;;4925574;28;20047;-82
2024/01/18 04:07:51;;;;;;;0.20;0.10;;;;;;;;;;4946750;28;20174;-83
2024/01/18 04:10:17;;;;;;;0.20;0.10;;;;;;;;;;4936724;28;20610;-82
2024/01/18 04:12:44;;;;;;;0.20;0.10;;;;;;;;;;4927007;28;20075;-83
2024/01/18 04:15:10;;;;;;;0.20;0.00;;;;;;;;;;4929234;28;20042;-83
2024/01/18 06:40:36;;;;;;;0.20;0.10;;;;;;;;;;1576349;23;20327;-84
2024/01/18 06:43:23;;;;;;;0.20;0.10;;;;;;;;;;4991586;28;20064;-85
2024/01/18 06:45:54;;;;;;;;;;;;;;;;;;4976267;28;20068;-86
2024/01/18 06:48:33;;;;;;;0.20;0.00;;;;;;;;;;4961280;28;19921;-88
2024/01/18 06:50:59;;;;;;;0.20;0.10;;;;;;;;;;4976398;28;20080;-87
2024/01/18 06:53:28;;;;;;;0.20;0.10;;;;;;;;;;4953113;28;20031;-87
2024/01/18 06:56:10;;;;;;;0.20;0.10;;;;;;;;;;4967534;28;20057;-85
2024/01/18 06:58:36;;;;;;;;;;;;;;;;;;4970031;28;20050;-85
2024/01/18 07:01:02;;;;;;;0.20;0.00;;;;;;;;;;4965431;28;19921;-86
2024/01/18 07:03:37;;;;;;;0.20;0.10;;;;;;;;;;4972687;28;20042;-86
2024/01/18 07:06:09;;;;;;;0.20;0.10;;;;;;;;;;4968424;28;20050;-85
2024/01/18 07:08:39;;;;;;;0.20;0.10;;;;;;;;;;4966185;28;20050;-85
2024/01/18 07:11:05;;;;;;;0.20;0.10;;;;;;;;;;4956606;28;20500;-84
2024/01/18 07:13:31;;;;;;;0.20;0.10;;;;;;;;;;4969352;28;20423;-85
2024/01/18 07:15:57;;;;;;;0.20;0.10;;;;;;;;;;4953709;28;20089;-83
2024/01/18 07:18:23;;;;;;;0.20;0.10;;;;;;;;;;4967366;28;20054;-83
2024/01/18 07:20:52;;;;;;;0.20;0.10;;;;;;;;;;4987992;28;20530;-83
2024/01/18 07:23:18;;;;;;;0.20;0.10;;;;;;;;;;4959129;28;20044;-83
2024/01/18 07:25:45;;;;;;;0.20;0.10;;;;;;;;;;4952199;28;20096;-82
2024/01/18 07:28:11;;;;;;;0.20;0.10;;;;;;;;;;4958469;28;20109;-83
2024/01/18 07:31:03;;;;;;;0.20;0.10;;;;;;;;;;4966789;28;20026;-84
2024/01/18 07:34:18;;;;;;;0.20;0.10;;;;;;;;;;4916033;29;20619;-83
2024/01/18 07:37:04;;;;;;;0.20;0.10;;;;;;;;;;4905559;29;20560;-83
2024/01/18 07:39:52;;;;;;;;;;;;;;;;;;;;;
2024/01/18 07:42:35;;;;;;;0.20;0.10;;;;;;;;;;4893692;29;20143;-83
2024/01/18 07:45:43;;;;;;;0.20;0.10;;;;;;;;;;4913135;28;20124;-83
2024/01/18 07:51:35;;;;;;;0.20;0.10;;;;;;;;;;4957466;28;20086;-84
2024/01/18 07:54:06;;;;;;;0.20;0.10;;;;;;;;;;4949025;28;20050;-83
2024/01/18 07:56:33;;;;;;;0.20;0.10;;;;;;;;;;4966043;28;20141;-83
2024/01/18 07:58:59;;;;;;;0.20;0.10;;;;;;;;;;4971860;28;20023;-83
2024/01/18 08:01:38;;;;;;;0.20;0.10;;;;;;;;;;4972235;28;20038;-83
2024/01/18 08:04:41;;;;;;;0.20;0.10;;;;;;;;;;4984903;28;20097;-82
2024/01/18 08:07:12;;;;;;;0.20;0.10;;;;;;;;;;4964426;28;20054;-83
2024/01/18 08:09:45;;;;;;;0.20;0.10;;;;;;;;;;4963831;28;20162;-83
2024/01/18 08:12:18;;;;;;;0.20;0.10;;;;;;;;;;4961681;28;20057;-83
2024/01/18 08:14:47;;;;;;;0.20;0.10;;;;;;;;;;4979115;28;20232;-82
2024/01/18 08:17:29;;;;;;;0.20;0.10;;;;;;;;;;4954107;28;20076;-83
2024/01/18 08:20:01;;;;;;;0.20;0.10;;;;;;;;;;4977788;28;20135;-83
2024/01/18 08:22:27;;;;;;;0.20;0.10;;;;;;;;;;4972495;28;20042;-83
2024/01/18 08:24:59;;;;;;;0.20;0.20;;;;;;;;;;4976958;28;20534;-83
2024/01/18 08:27:30;;;;;;;0.57;0.30;;;;;;;;;;4961008;28;20054;-83
2024/01/18 08:30:05;;;;;;;0.20;0.10;;;;;;;;;;4964129;28;20072;-83
2024/01/18 08:32:34;;;;;;;0.20;0.10;;;;;;;;;;4961453;28;20414;-83
2024/01/18 08:35:07;;;;;;;0.20;0.10;;;;;;;;;;4973283;28;20070;-83
2024/01/18 08:37:37;;;;;;;0.20;0.10;;;;;;;;;;4977799;28;20046;-82
2024/01/18 08:40:03;;;;;;;0.20;0.10;;;;;;;;;;4976526;28;20613;-83
2024/01/18 08:42:41;;;;;;;0.20;0.10;;;;;;;;;;4975869;28;20053;-83
2024/01/18 08:45:07;;;;;;;0.20;0.10;;;;;;;;;;4977888;28;20049;-82
2024/01/18 08:47:40;;;;;;;0.20;0.10;;;;;;;;;;4973942;28;20414;-83
2024/01/18 08:50:20;;;;;;;0.20;0.10;;;;;;;;;;4953241;28;20050;-83
2024/01/18 08:52:52;;;;;;;0.20;0.10;;;;;;;;;;4959864;28;20092;-83
2024/01/18 08:55:21;;;;;;;0.20;0.10;;;;;;;;;;4975008;28;20519;-83
2024/01/18 08:57:47;;;;;;;0.20;0.05;;;;;;;;;;4969509;28;20046;-83
2024/01/18 09:00:17;;;;;;;0.20;0.10;;;;;;;;;;4971817;28;20039;-82
2024/01/18 09:02:46;;;;;;;0.20;0.10;;;;;;;;;;4956524;28;20058;-83
2024/01/18 09:05:15;;;;;;;0.20;0.10;;;;;;;;;;4954695;28;20181;-83
2024/01/18 09:07:42;;;;;;;0.20;0.10;;;;;;;;;;4956462;28;20058;-82
2024/01/18 09:10:16;;;;;;;0.20;0.10;;;;;;;;;;4954568;28;20046;-82
2024/01/18 09:12:44;;;;;;;0.20;0.10;;;;;;;;;;4973704;28;20053;-82
2024/01/18 09:15:14;;;;;;;;;;;;;;;;;;4971489;28;20042;-82
2024/01/18 09:17:43;;;;;;;0.20;0.10;;;;;;;;;;4971696;28;19933;-82
2024/01/18 09:20:10;;;;;;;0.20;0.10;;;;;;;;;;4951941;28;20472;-82
2024/01/18 09:22:36;;;;;;;0.20;0.03;;;;;;;;;;4954981;28;20125;-82
2024/01/18 09:25:03;;;;;;;0.20;0.10;;;;;;;;;;4958102;28;20112;-82
2024/01/18 09:27:29;;;;;;;0.20;0.10;;;;;;;;;;4957343;28;20102;-82
2024/01/18 09:29:55;;;;;;;0.20;0.10;;;;;;;;;;4967516;28;20038;-81
2024/01/18 09:32:21;;;;;;;0.20;0.10;;;;;;;;;;4959520;28;20065;-81
2024/01/18 09:34:48;;;;;;;0.20;0.10;;;;;;;;;;4972128;28;20042;-82
2024/01/18 09:37:14;;;;;;;0.20;0.00;;;;;;;;;;4971599;28;20046;-82
2024/01/18 09:39:41;;;;;;;0.20;0.10;;;;;;;;;;4972435;28;20042;-82
2024/01/18 09:42:14;;;;;;;0.80;0.80;;;;;;;;;;4952786;28;20049;-83
2024/01/18 09:44:45;;;;;;;0.20;0.10;;;;;;;;;;4950531;28;20218;-82
2024/01/18 09:47:12;;;;;;;0.20;0.15;;;;;;;;;;4957155;28;20104;-81
2024/01/18 09:49:42;;;;;;;0.20;0.10;;;;;;;;;;4959184;28;20054;-83
2024/01/18 09:52:08;;;;;;;0.20;0.10;;;;;;;;;;4966398;28;20058;-83
2024/01/18 09:54:34;;;;;;;0.20;0.10;;;;;;;;;;4994511;28;20065;-81
2024/01/18 09:57:01;;;;;;;0.20;0.10;;;;;;;;;;4956163;28;20038;-82
2024/01/18 09:59:31;;;;;;;0.20;0.10;;;;;;;;;;4970455;28;20066;-82
2024/01/18 10:01:58;;;;;;;0.20;0.10;;;;;;;;;;4967388;28;20646;-82
2024/01/18 10:04:27;;;;;;;0.20;0.10;;;;;;;;;;4977172;28;20041;-81
2024/01/18 10:06:54;;;;;;;0.20;0.10;;;;;;;;;;4979060;28;20046;-81
2024/01/18 10:09:20;;;;;;;0.20;0.10;;;;;;;;;;4978667;28;20057;-82
2024/01/18 10:11:46;;;;;;;0.20;0.10;;;;;;;;;;4963932;28;20058;-82
2024/01/18 10:14:15;;;;;;;0.20;0.05;;;;;;;;;;4974645;28;20070;-82
2024/01/18 10:16:41;;;;;;;0.20;0.10;;;;;;;;;;4955053;28;20042;-84
2024/01/18 10:19:15;;;;;;;0.20;0.10;;;;;;;;;;4955240;28;20085;-81
2024/01/18 10:21:41;;;;;;;0.20;0.10;;;;;;;;;;4956134;28;20046;-82
2024/01/18 10:24:14;;;;;;;0.20;0.10;;;;;;;;;;4971904;28;20039;-82
2024/01/18 10:26:40;;;;;;;0.20;0.10;;;;;;;;;;4970046;28;20512;-84
2024/01/18 10:29:10;;;;;;;0.20;0.10;;;;;;;;;;4965583;28;20050;-83
2024/01/18 10:31:41;;;;;;;0.20;0.10;;;;;;;;;;4951154;28;20089;-82
2024/01/18 10:34:07;;;;;;;0.20;0.10;;;;;;;;;;4964402;28;20152;-83
2024/01/18 10:36:34;;;;;;;0.20;0.10;;;;;;;;;;4948746;28;20045;-82
2024/01/18 10:39:14;;;;;;;0.20;0.10;;;;;;;;;;4967802;28;20046;-83
2024/01/18 10:41:40;;;;;;;0.20;0.10;;;;;;;;;;4963625;28;20076;-85
2024/01/18 10:44:07;;;;;;;0.20;0.10;;;;;;;;;;4949981;28;20046;-85
2024/01/18 10:46:33;;;;;;;0.20;0.10;;;;;;;;;;4952636;28;20042;-83
2024/01/18 10:48:59;;;;;;;0.20;0.10;;;;;;;;;;4962923;28;20035;-85
2024/01/18 10:51:25;;;;;;;0.20;0.10;;;;;;;;;;4949232;28;20042;-85
2024/01/18 10:53:52;;;;;;;0.20;0.10;;;;;;;;;;4947658;28;20039;-83
2024/01/18 10:56:22;;;;;;;0.20;0.10;;;;;;;;;;4953152;28;20050;-86
2024/01/18 10:58:53;;;;;;;0.20;0.10;;;;;;;;;;4951959;28;20068;-84
2024/01/18 11:01:23;;;;;;;0.20;0.10;;;;;;;;;;4957246;28;20035;-87
2024/01/18 11:03:50;;;;;;;0.20;0.17;;;;;;;;;;4964173;28;20557;-85
2024/01/18 11:06:16;;;;;;;0.20;0.10;;;;;;;;;;4949244;28;20059;-85
2024/01/18 11:08:45;;;;;;;0.20;0.10;;;;;;;;;;4953296;28;20042;-87
2024/01/18 11:11:15;;;;;;;0.20;0.10;;;;;;;;;;4966778;28;20046;-86
2024/01/18 11:13:46;;;;;;;0.20;0.10;;;;;;;;;;4949890;28;20131;-85
2024/01/18 11:16:16;;;;;;;0.20;0.10;;;;;;;;;;4965796;28;20042;-86
2024/01/18 11:18:51;;;;;;;0.20;0.10;;;;;;;;;;4948993;28;20046;-88
2024/01/18 11:21:27;;;;;;;0.20;0.10;;;;;;;;;;4965732;28;20042;-87
2024/01/18 11:24:04;;;;;;;0.20;0.10;;;;;;;;;;4953426;28;20038;-85
2024/01/18 11:26:40;;;;;;;0.20;0.10;;;;;;;;;;4951900;28;20047;-85
2024/01/18 11:29:25;;;;;;;0.20;0.10;;;;;;;;;;4968107;28;20130;-86
2024/01/18 11:31:52;;;;;;;0.20;0.10;;;;;;;;;;4967243;28;20092;-85
2024/01/18 11:34:36;;;;;;;0.20;0.10;;;;;;;;;;4956657;28;20554;-85
2024/01/18 11:37:15;;;;;;;0.20;0.10;;;;;;;;;;4955842;28;20065;-84
2024/01/18 11:39:47;;;;;;;0.20;0.10;;;;;;;;;;4947345;28;20042;-84
2024/01/18 11:42:55;;;;;;;0.20;0.10;;;;;;;;;;4970434;28;20042;-85
2024/01/18 11:45:54;;;;;;;0.20;0.00;;;;;;;;;;4973173;28;20136;-85
2024/01/18 11:48:20;;;;;;;0.20;0.00;;;;;;;;;;4968680;28;20046;-86
2024/01/18 11:50:55;;;;;;;0.20;0.10;;;;;;;;;;4968021;28;20042;-85
2024/01/18 11:53:24;;;;;;;0.20;0.00;;;;;;;;;;4950078;28;20491;-85
2024/01/18 11:55:52;;;;;;;0.20;0.10;;;;;;;;;;4973369;28;20053;-85
2024/01/18 11:58:51;;;;;;;;;;;;;;;;;;;;;
2024/01/18 12:04:26;;;;;;;0.20;0.10;;;;;;;;;;4958049;28;20514;-85
2024/01/18 12:06:52;;;;;;;0.20;0.10;;;;;;;;;;4960078;28;20050;-86
2024/01/18 12:09:18;;;;;;;0.20;0.10;;;;;;;;;;4964487;28;20144;-87
2024/01/18 12:11:59;;;;;;;0.20;0.10;;;;;;;;;;4972895;28;20113;-85
2024/01/18 12:14:35;;;;;;;0.20;0.10;;;;;;;;;;4952005;28;20344;-85
2024/01/18 12:17:04;;;;;;;0.20;0.10;;;;;;;;;;4955891;28;20049;-85
2024/01/18 12:19:37;;;;;;;0.20;0.10;;;;;;;;;;4988998;28;20035;-85
2024/01/18 12:22:09;;;;;;;0.20;0.10;;;;;;;;;;4958441;28;20137;-85
2024/01/18 12:24:51;;;;;;;0.20;0.10;;;;;;;;;;4949892;28;20031;-85
2024/01/18 12:27:39;;;;;;;0.20;0.10;;;;;;;;;;4973966;28;22275;-84
2024/01/18 12:33:36;;;;;;;0.20;0.10;;;;;;;;;;4962263;28;20047;-85
2024/01/18 12:36:08;;;;;;;0.20;0.10;;;;;;;;;;4958151;28;20047;-86
2024/01/18 12:38:35;;;;;;;0.20;0.10;;;;;;;;;;4961327;28;20046;-86
2024/01/18 12:41:04;;;;;;;0.20;0.10;;;;;;;;;;4967281;28;20058;-86
2024/01/18 12:43:46;;;;;;;0.20;0.10;;;;;;;;;;4984188;28;20038;-84
2024/01/18 12:46:19;;;;;;;0.20;0.00;;;;;;;;;;4973830;28;20053;-85
2024/01/18 12:49:03;;;;;;;0.20;0.13;;;;;;;;;;4970209;28;20527;-86
2024/01/18 12:51:53;;;;;;;0.20;0.10;;;;;;;;;;4951394;28;20054;-85
2024/01/18 12:54:24;;;;;;;0.20;0.10;;;;;;;;;;4968829;28;20058;-84
2024/01/18 12:56:56;;;;;;;0.20;0.10;;;;;;;;;;4967599;28;20038;-84
2024/01/18 12:59:50;;;;;;;0.20;0.10;;;;;;;;;;4972553;28;20061;-85
2024/01/18 13:02:32;;;;;;;0.20;0.10;;;;;;;;;;4971644;28;20038;-84
2024/01/18 13:05:19;;;;;;;0.20;0.10;;;;;;;;;;4946051;28;20046;-85
2024/01/18 13:07:48;;;;;;;0.20;0.00;;;;;;;;;;4954707;28;20388;-85
2024/01/18 13:10:26;;;;;;;0.20;0.10;;;;;;;;;;4968776;28;20034;-86
2024/01/18 13:12:58;;;;;;;0.20;0.10;;;;;;;;;;4968741;28;20042;-84
2024/01/18 13:15:33;;;;;;;0.20;0.00;;;;;;;;;;4967280;28;20035;-84
2024/01/18 13:18:08;;;;;;;0.20;0.10;;;;;;;;;;4953804;28;20084;-85
2024/01/18 13:20:43;;;;;;;0.20;0.10;;;;;;;;;;4952964;28;20042;-85
2024/01/18 13:23:13;;;;;;;0.20;0.10;;;;;;;;;;4955332;28;20070;-87
2024/01/18 13:25:42;;;;;;;0.20;0.10;;;;;;;;;;4951887;28;20038;-85
2024/01/18 13:28:08;;;;;;;0.20;0.00;;;;;;;;;;4975687;28;20058;-84
2024/01/18 13:30:39;;;;;;;0.20;0.10;;;;;;;;;;4953982;28;20041;-84
2024/01/18 13:33:13;;;;;;;0.20;0.00;;;;;;;;;;4971982;28;20643;-87
2024/01/18 13:35:50;;;;;;;0.20;0.00;;;;;;;;;;4958146;28;20035;-85
2024/01/18 13:38:22;;;;;;;0.20;0.10;;;;;;;;;;4968362;28;20050;-87
2024/01/18 13:40:51;;;;;;;0.20;0.10;;;;;;;;;;4954854;28;20046;-86
2024/01/18 13:43:20;;;;;;;0.73;0.20;;;;;;;;;;4970459;28;20073;-85
2024/01/18 13:48:57;;;;;;;0.20;0.10;;;;;;;;;;4967579;28;20066;-86
2024/01/18 13:51:30;;;;;;;0.20;0.10;;;;;;;;;;4950840;28;20454;-85
2024/01/18 13:53:59;;;;;;;0.20;0.10;;;;;;;;;;4956203;28;20047;-85
2024/01/18 13:56:30;;;;;;;0.20;0.10;;;;;;;;;;4957331;28;20057;-85
2024/01/18 13:59:07;;;;;;;0.20;0.00;;;;;;;;;;4970007;28;20049;-86
2024/01/18 14:01:42;;;;;;;0.20;0.10;;;;;;;;;;4968972;28;20434;-85
2024/01/18 14:04:08;;;;;;;0.20;0.10;;;;;;;;;;4969216;28;20046;-86
2024/01/18 14:06:43;;;;;;;0.20;0.00;;;;;;;;;;4969760;28;20520;-86
2024/01/18 14:09:41;;;;;;;0.20;0.10;;;;;;;;;;4950228;28;20061;-84
2024/01/18 14:12:07;;;;;;;0.20;0.00;;;;;;;;;;4957653;28;20090;-84
2024/01/18 14:14:36;;;;;;;0.20;0.10;;;;;;;;;;4957116;28;20446;-87
2024/01/18 14:17:09;;;;;;;0.20;0.00;;;;;;;;;;4984071;28;20123;-84
2024/01/18 14:19:40;;;;;;;0.20;0.00;;;;;;;;;;4965168;28;20038;-84
2024/01/18 14:22:29;;;;;;;0.20;0.10;;;;;;;;;;4953642;28;20077;-84
2024/01/18 14:24:56;;;;;;;0.30;0.20;;;;;;;;;;4956615;28;20491;-85
2024/01/18 14:27:29;;;;;;;0.20;0.10;;;;;;;;;;4975347;28;20061;-84
2024/01/18 14:30:15;;;;;;;0.20;0.00;;;;;;;;;;4975840;28;20039;-84
2024/01/18 14:32:53;;;;;;;0.20;0.00;;;;;;;;;;4980506;28;20142;-84
2024/01/18 14:35:26;;;;;;;0.20;0.10;;;;;;;;;;4973548;28;20407;-84
2024/01/18 14:38:16;;;;;;;0.20;0.10;;;;;;;;;;4971755;28;20045;-84
2024/01/18 14:40:59;;;;;;;0.20;0.10;;;;;;;;;;4981633;28;20534;-83
2024/01/18 14:44:01;;;;;;;0.20;0.00;;;;;;;;;;4977133;28;20038;-83
2024/01/18 14:46:23;;;;;;;0.20;0.10;;;;;;;;;;4974359;28;20061;-84
2024/01/18 14:48:56;;;;;;;0.20;0.10;;;;;;;;;;4969411;28;20078;-83
2024/01/18 14:51:33;;;;;;;0.20;0.10;;;;;;;;;;4981876;28;20051;-84
2024/01/18 14:54:03;;;;;;;0.20;0.10;;;;;;;;;;4957803;28;20051;-83
2024/01/18 14:56:36;;;;;;;0.20;0.00;;;;;;;;;;4982221;28;20062;-83
2024/01/18 14:59:10;;;;;;;0.20;0.10;;;;;;;;;;4982687;28;20042;-84
2024/01/18 15:01:52;;;;;;;0.20;0.00;;;;;;;;;;4977905;28;20046;-84
2024/01/18 15:04:28;;;;;;;0.20;0.10;;;;;;;;;;4989021;28;20177;-83
2024/01/18 15:06:54;;;;;;;0.20;0.00;;;;;;;;;;4972790;28;20037;-82
2024/01/18 15:09:21;;;;;;;0.20;0.10;;;;;;;;;;4970761;28;20133;-83
2024/01/18 15:11:51;;;;;;;0.20;0.10;;;;;;;;;;4992611;28;20077;-84
2024/01/18 15:14:21;;;;;;;0.20;0.08;;;;;;;;;;4980917;28;20074;-83
2024/01/18 15:16:50;;;;;;;0.20;0.00;;;;;;;;;;4990011;28;20047;-83
2024/01/18 15:19:23;;;;;;;0.20;0.00;;;;;;;;;;4969477;28;20615;-83
2024/01/18 15:21:52;;;;;;;0.20;0.10;;;;;;;;;;4974652;28;20042;-82
2024/01/18 15:24:18;;;;;;;0.20;0.00;;;;;;;;;;4972429;28;20038;-83
2024/01/18 15:26:50;;;;;;;0.20;0.10;;;;;;;;;;4969453;28;20034;-83
2024/01/18 15:29:16;;;;;;;0.20;0.10;;;;;;;;;;4991108;28;20051;-83
2024/01/18 15:31:47;;;;;;;0.20;0.08;;;;;;;;;;4977317;28;20070;-82
2024/01/18 15:34:22;;;;;;;0.20;0.10;;;;;;;;;;4993091;28;20038;-82
2024/01/18 15:36:48;;;;;;;0.20;0.10;;;;;;;;;;4984349;28;20124;-83
2024/01/18 15:39:16;;;;;;;0.20;0.10;;;;;;;;;;4980099;28;20110;-83
2024/01/18 15:41:45;;;;;;;0.20;0.00;;;;;;;;;;4994814;28;20029;-83
2024/01/18 15:44:15;;;;;;;0.20;0.00;;;;;;;;;;4987020;28;20042;-83
2024/01/18 15:46:48;;;;;;;0.20;0.00;;;;;;;;;;4990358;28;20068;-83
2024/01/18 15:49:26;;;;;;;0.20;0.10;;;;;;;;;;4988436;28;20046;-82
2024/01/18 15:51:55;;;;;;;0.20;0.10;;;;;;;;;;4978630;28;20026;-83
2024/01/18 15:54:27;;;;;;;0.20;0.10;;;;;;;;;;4986126;28;21184;-82
2024/01/18 15:56:53;;;;;;;0.20;0.10;;;;;;;;;;4994392;28;20031;-83
2024/01/18 15:59:20;;;;;;;0.20;0.10;;;;;;;;;;4976970;28;20057;-83
2024/01/18 16:01:46;;;;;;;0.20;0.10;;;;;;;;;;4975711;28;20042;-83
2024/01/18 16:04:12;;;;;;;0.20;0.10;;;;;;;;;;4992084;28;20042;-82
2024/01/18 16:06:38;;;;;;;0.20;0.10;;;;;;;;;;4976619;28;20762;-82
2024/01/18 16:09:06;;;;;;;0.20;0.10;;;;;;;;;;4989299;28;20090;-84
2024/01/18 16:11:35;;;;;;;0.20;0.10;;;;;;;;;;4983179;28;20062;-84
2024/01/18 16:14:01;;;;;;;0.20;0.10;;;;;;;;;;4987450;28;20077;-83
2024/01/18 16:16:33;;;;;;;0.20;0.10;;;;;;;;;;4990426;28;20035;-83
2024/01/18 16:18:59;;;;;;;0.20;0.10;;;;;;;;;;4994612;28;20098;-82
2024/01/18 16:21:28;;;;;;;0.20;0.10;;;;;;;;;;4973301;28;20049;-84
2024/01/18 16:23:54;;;;;;;0.20;0.10;;;;;;;;;;4980464;28;20107;-82
2024/01/18 16:26:20;;;;;;;0.20;0.10;;;;;;;;;;4990105;28;20050;-84
2024/01/18 16:28:46;;;;;;;0.20;0.08;;;;;;;;;;4980237;28;20022;-82
2024/01/18 16:31:12;;;;;;;0.20;0.10;;;;;;;;;;4990718;28;20051;-84
2024/01/18 16:33:38;;;;;;;0.20;0.10;;;;;;;;;;4989466;28;20046;-83
2024/01/18 16:36:05;;;;;;;0.20;0.10;;;;;;;;;;4986264;28;20045;-82
2024/01/18 16:38:38;;;;;;;0.20;0.10;;;;;;;;;;4987168;28;20100;-83
2024/01/18 16:41:07;;;;;;;0.20;0.10;;;;;;;;;;4970522;28;20074;-83
2024/01/18 16:43:34;;;;;;;0.20;0.10;;;;;;;;;;4989186;28;20042;-83
2024/01/18 16:46:02;;;;;;;0.20;0.00;;;;;;;;;;4983785;28;20057;-83
2024/01/18 16:48:29;;;;;;;0.20;0.10;;;;;;;;;;4984868;28;20038;-83
2024/01/18 16:50:55;;;;;;;0.20;0.10;;;;;;;;;;4990082;28;20043;-84
2024/01/18 16:53:22;;;;;;;0.20;0.10;;;;;;;;;;4992955;28;20105;-83
2024/01/18 16:55:48;;;;;;;0.20;0.00;;;;;;;;;;4993076;28;20053;-82
2024/01/18 16:58:14;;;;;;;0.20;0.10;;;;;;;;;;4985655;28;20050;-82
2024/01/18 17:00:50;;;;;;;0.20;0.10;;;;;;;;;;4991164;28;20092;-82
2024/01/18 17:03:16;;;;;;;0.20;0.10;;;;;;;;;;4992050;28;20069;-83
2024/01/18 17:05:48;;;;;;;1.00;0.77;;;;;;;;;;4974784;28;20550;-83
2024/01/18 17:08:14;;;;;;;0.20;0.10;;;;;;;;;;4990972;28;20046;-84
2024/01/18 17:10:42;;;;;;;0.20;0.10;;;;;;;;;;4993075;28;20046;-83
2024/01/18 17:13:11;;;;;;;0.20;0.10;;;;;;;;;;4963865;28;20053;-83
2024/01/18 17:15:38;;;;;;;0.20;0.10;;;;;;;;;;4988945;28;20047;-84
2024/01/18 17:18:04;;;;;;;0.20;0.10;;;;;;;;;;4988705;28;20387;-83
2024/01/18 17:20:30;;;;;;;0.20;0.10;;;;;;;;;;4995240;28;20120;-84
2024/01/18 17:23:01;;;;;;;0.43;0.35;;;;;;;;;;4974984;28;20038;-83
2024/01/18 17:25:27;;;;;;;0.20;0.10;;;;;;;;;;4991338;28;20042;-83
2024/01/18 17:27:57;;;;;;;0.20;0.00;;;;;;;;;;4982536;28;20188;-83
2024/01/18 17:30:28;;;;;;;0.20;0.10;;;;;;;;;;4976098;28;20046;-83
2024/01/18 17:32:59;;;;;;;0.20;0.10;;;;;;;;;;4968031;28;20031;-83
2024/01/18 17:35:26;;;;;;;0.20;0.10;;;;;;;;;;4967906;28;20038;-83
2024/01/18 17:38:12;;;;;;;0.20;0.10;;;;;;;;;;4981397;28;20042;-84
2024/01/18 17:40:39;;;;;;;0.20;0.10;;;;;;;;;;4955226;28;20051;-82